sensor_id;sensor_type;location;lat;lon;timestamp;pressure;altitude;pressure_sealevel;temperature;humidity
46534;BME280;32260;52.008;4.752;2022-08-21T00:02:17;101757.16;;;19.15;61.54
46534;BME280;32260;52.008;4.752;2022-08-21T00:04:45;101767.94;;;19.14;61.71
46534;BME280;32260;52.008;4.752;2022-08-21T00:07:15;101766.19;;;19.13;62.10
46534;BME280;32260;52.008;4.752;2022-08-21T00:09:44;101762.69;;;19.11;61.84
46534;BME280;32260;52.008;4.752;2022-08-21T00:12:11;101762.63;;;19.12;61.70
46534;BME280;32260;52.008;4.752;2022-08-21T00:14:38;101757.25;;;19.12;61.63
46534;BME280;32260;52.008;4.752;2022-08-21T00:17:07;101757.19;;;19.14;61.63
46534;BME280;32260;52.008;4.752;2022-08-21T00:19:35;101760.00;;;19.11;61.69
46534;BME280;32260;52.008;4.752;2022-08-21T00:22:03;101752.75;;;19.13;61.89
46534;BME280;32260;52.008;4.752;2022-08-21T00:24:31;101761.78;;;19.12;61.85
46534;BME280;32260;52.008;4.752;2022-08-21T00:26:57;101759.13;;;19.10;61.59
46534;BME280;32260;52.008;4.752;2022-08-21T00:29:25;101754.75;;;19.07;61.74
46534;BME280;32260;52.008;4.752;2022-08-21T00:31:53;101755.69;;;19.06;61.53
46534;BME280;32260;52.008;4.752;2022-08-21T00:34:20;101754.75;;;19.07;61.70
46534;BME280;32260;52.008;4.752;2022-08-21T00:36:46;101743.22;;;19.05;61.63
46534;BME280;32260;52.008;4.752;2022-08-21T00:39:15;101748.63;;;19.04;61.94
46534;BME280;32260;52.008;4.752;2022-08-21T00:41:43;101745.09;;;19.03;61.66
46534;BME280;32260;52.008;4.752;2022-08-21T00:44:12;101738.88;;;19.01;61.72
46534;BME280;32260;52.008;4.752;2022-08-21T00:46:39;101743.50;;;18.98;61.88
46534;BME280;32260;52.008;4.752;2022-08-21T00:49:10;101745.41;;;18.96;62.28
46534;BME280;32260;52.008;4.752;2022-08-21T00:51:57;101748.69;;;19.02;62.06
46534;BME280;32260;52.008;4.752;2022-08-21T00:54:28;101741.91;;;18.94;62.11
46534;BME280;32260;52.008;4.752;2022-08-21T00:57:01;101737.44;;;18.92;62.38
46534;BME280;32260;52.008;4.752;2022-08-21T00:59:37;101740.97;;;18.95;61.93
46534;BME280;32260;52.008;4.752;2022-08-21T01:02:07;101739.34;;;18.90;62.06
46534;BME280;32260;52.008;4.752;2022-08-21T01:04:36;101736.75;;;18.87;62.47
46534;BME280;32260;52.008;4.752;2022-08-21T01:07:04;101741.25;;;18.87;62.16
46534;BME280;32260;52.008;4.752;2022-08-21T01:09:31;101745.72;;;18.86;62.27
46534;BME280;32260;52.008;4.752;2022-08-21T01:12:03;101747.41;;;18.89;62.15
46534;BME280;32260;52.008;4.752;2022-08-21T01:14:33;101744.03;;;18.84;62.51
46534;BME280;32260;52.008;4.752;2022-08-21T01:17:02;101748.63;;;18.82;62.78
46534;BME280;32260;52.008;4.752;2022-08-21T01:19:32;101745.88;;;18.83;62.50
46534;BME280;32260;52.008;4.752;2022-08-21T01:22:02;101744.19;;;18.81;62.35
46534;BME280;32260;52.008;4.752;2022-08-21T01:24:31;101746.97;;;18.78;62.42
46534;BME280;32260;52.008;4.752;2022-08-21T01:27:00;101751.56;;;18.75;62.53
46534;BME280;32260;52.008;4.752;2022-08-21T01:29:37;101746.97;;;18.78;62.70
46534;BME280;32260;52.008;4.752;2022-08-21T01:32:10;101746.19;;;18.75;62.82
46534;BME280;32260;52.008;4.752;2022-08-21T01:34:41;101742.69;;;18.73;62.88
46534;BME280;32260;52.008;4.752;2022-08-21T01:37:12;101745.47;;;18.70;62.94
46534;BME280;32260;52.008;4.752;2022-08-21T01:39:41;101746.44;;;18.69;63.17
46534;BME280;32260;52.008;4.752;2022-08-21T01:42:11;101737.63;;;18.66;62.76
46534;BME280;32260;52.008;4.752;2022-08-21T01:44:39;101740.22;;;18.67;62.99
46534;BME280;32260;52.008;4.752;2022-08-21T01:47:11;101738.47;;;18.66;63.25
46534;BME280;32260;52.008;4.752;2022-08-21T01:49:40;101737.72;;;18.63;63.30
46534;BME280;32260;52.008;4.752;2022-08-21T01:52:10;101733.25;;;18.63;63.15
46534;BME280;32260;52.008;4.752;2022-08-21T01:54:39;101743.97;;;18.63;63.51
46534;BME280;32260;52.008;4.752;2022-08-21T01:57:09;101734.09;;;18.64;63.36
46534;BME280;32260;52.008;4.752;2022-08-21T01:59:37;101726.22;;;18.59;63.61
46534;BME280;32260;52.008;4.752;2022-08-21T02:02:05;101733.41;;;18.58;63.63
46534;BME280;32260;52.008;4.752;2022-08-21T02:04:32;101728.97;;;18.57;63.71
46534;BME280;32260;52.008;4.752;2022-08-21T02:07:05;101724.44;;;18.59;63.66
46534;BME280;32260;52.008;4.752;2022-08-21T02:09:33;101728.22;;;18.54;64.08
46534;BME280;32260;52.008;4.752;2022-08-21T02:12:04;101721.94;;;18.55;64.24
46534;BME280;32260;52.008;4.752;2022-08-21T02:14:33;101719.38;;;18.52;63.83
46534;BME280;32260;52.008;4.752;2022-08-21T02:17:01;101715.88;;;18.50;64.03
46534;BME280;32260;52.008;4.752;2022-08-21T02:19:32;101713.19;;;18.50;64.24
46534;BME280;32260;52.008;4.752;2022-08-21T02:21:58;101707.00;;;18.48;64.21
46534;BME280;32260;52.008;4.752;2022-08-21T02:24:28;101707.00;;;18.48;63.88
46534;BME280;32260;52.008;4.752;2022-08-21T02:26:57;101713.38;;;18.45;64.10
46534;BME280;32260;52.008;4.752;2022-08-21T02:29:26;101709.81;;;18.45;63.70
46534;BME280;32260;52.008;4.752;2022-08-21T02:31:53;101714.38;;;18.42;63.75
46534;BME280;32260;52.008;4.752;2022-08-21T02:34:20;101711.69;;;18.42;64.16
46534;BME280;32260;52.008;4.752;2022-08-21T02:36:50;101713.44;;;18.43;63.97
46534;BME280;32260;52.008;4.752;2022-08-21T02:39:17;101717.09;;;18.41;63.77
46534;BME280;32260;52.008;4.752;2022-08-21T02:41:45;101712.75;;;18.38;64.12
46534;BME280;32260;52.008;4.752;2022-08-21T02:44:14;101703.81;;;18.38;63.72
46534;BME280;32260;52.008;4.752;2022-08-21T02:46:40;101707.47;;;18.35;64.05
46534;BME280;32260;52.008;4.752;2022-08-21T02:49:09;101709.22;;;18.36;63.76
46534;BME280;32260;52.008;4.752;2022-08-21T02:51:39;101709.31;;;18.35;63.94
46534;BME280;32260;52.008;4.752;2022-08-21T02:54:05;101711.22;;;18.31;64.04
46534;BME280;32260;52.008;4.752;2022-08-21T02:56:32;101708.59;;;18.30;63.96
46534;BME280;32260;52.008;4.752;2022-08-21T02:58:59;101713.06;;;18.29;64.11
46534;BME280;32260;52.008;4.752;2022-08-21T03:01:28;101711.34;;;18.28;63.98
46534;BME280;32260;52.008;4.752;2022-08-21T03:03:55;101716.75;;;18.26;64.14
46534;BME280;32260;52.008;4.752;2022-08-21T03:06:24;101706.97;;;18.25;63.92
46534;BME280;32260;52.008;4.752;2022-08-21T03:08:51;101706.09;;;18.25;64.05
46534;BME280;32260;52.008;4.752;2022-08-21T03:11:19;101705.22;;;18.24;63.97
46534;BME280;32260;52.008;4.752;2022-08-21T03:13:49;101697.19;;;18.24;63.86
46534;BME280;32260;52.008;4.752;2022-08-21T03:16:17;101699.97;;;18.21;64.13
46534;BME280;32260;52.008;4.752;2022-08-21T03:18:49;101699.97;;;18.21;64.24
46534;BME280;32260;52.008;4.752;2022-08-21T03:21:16;101692.91;;;18.19;64.20
46534;BME280;32260;52.008;4.752;2022-08-21T03:23:48;101690.38;;;18.16;64.48
46534;BME280;32260;52.008;4.752;2022-08-21T03:26:16;101685.00;;;18.16;64.55
46534;BME280;32260;52.008;4.752;2022-08-21T03:28:44;101680.63;;;18.13;64.12
46534;BME280;32260;52.008;4.752;2022-08-21T03:31:11;101681.56;;;18.12;64.17
46534;BME280;32260;52.008;4.752;2022-08-21T03:33:37;101679.88;;;18.09;64.40
46534;BME280;32260;52.008;4.752;2022-08-21T03:36:07;101672.63;;;18.11;64.46
46534;BME280;32260;52.008;4.752;2022-08-21T03:38:35;101677.97;;;18.13;64.16
46534;BME280;32260;52.008;4.752;2022-08-21T03:41:04;101677.22;;;18.08;64.17
46534;BME280;32260;52.008;4.752;2022-08-21T03:43:33;101675.38;;;18.10;64.44
46534;BME280;32260;52.008;4.752;2022-08-21T03:46:03;101678.28;;;18.04;64.61
46534;BME280;32260;52.008;4.752;2022-08-21T03:48:31;101677.53;;;18.00;64.56
46534;BME280;32260;52.008;4.752;2022-08-21T03:51:00;101674.91;;;17.99;64.39
46534;BME280;32260;52.008;4.752;2022-08-21T03:53:29;101672.28;;;17.97;64.47
46534;BME280;32260;52.008;4.752;2022-08-21T03:55:57;101673.22;;;17.96;64.42
46534;BME280;32260;52.008;4.752;2022-08-21T03:58:27;101674.97;;;17.97;64.53
46534;BME280;32260;52.008;4.752;2022-08-21T04:00:58;101676.78;;;17.97;64.68
46534;BME280;32260;52.008;4.752;2022-08-21T04:03:27;101673.28;;;17.93;65.13
46534;BME280;32260;52.008;4.752;2022-08-21T04:05:55;101681.41;;;17.91;64.80
46534;BME280;32260;52.008;4.752;2022-08-21T04:08:23;101681.47;;;17.90;65.10
46534;BME280;32260;52.008;4.752;2022-08-21T04:10:55;101683.22;;;17.91;65.00
46534;BME280;32260;52.008;4.752;2022-08-21T04:13:23;101685.13;;;17.87;65.06
46534;BME280;32260;52.008;4.752;2022-08-21T04:15:52;101680.56;;;17.89;65.06
46534;BME280;32260;52.008;4.752;2022-08-21T04:18:21;101690.59;;;17.84;65.78
46534;BME280;32260;52.008;4.752;2022-08-21T04:20:51;101686.00;;;17.88;65.44
46534;BME280;32260;52.008;4.752;2022-08-21T04:23:21;101677.94;;;17.88;65.60
46534;BME280;32260;52.008;4.752;2022-08-21T04:25:49;101681.53;;;17.88;65.61
46534;BME280;32260;52.008;4.752;2022-08-21T04:28:16;101685.06;;;17.89;65.08
46534;BME280;32260;52.008;4.752;2022-08-21T04:30:45;101686.75;;;17.91;65.61
46534;BME280;32260;52.008;4.752;2022-08-21T04:33:14;101691.28;;;17.89;65.79
46534;BME280;32260;52.008;4.752;2022-08-21T04:35:43;101689.59;;;17.87;65.90
46534;BME280;32260;52.008;4.752;2022-08-21T04:38:10;101698.47;;;17.89;65.48
46534;BME280;32260;52.008;4.752;2022-08-21T04:40:38;101694.09;;;17.86;65.58
46534;BME280;32260;52.008;4.752;2022-08-21T04:43:08;101696.63;;;17.91;65.09
46534;BME280;32260;52.008;4.752;2022-08-21T04:45:39;101697.41;;;17.93;65.15
46534;BME280;32260;52.008;4.752;2022-08-21T04:48:07;101702.78;;;17.94;65.40
46534;BME280;32260;52.008;4.752;2022-08-21T04:50:43;101702.72;;;17.96;65.46
46534;BME280;32260;52.008;4.752;2022-08-21T04:53:17;101701.88;;;17.94;64.94
46534;BME280;32260;52.008;4.752;2022-08-21T04:55:46;101709.88;;;17.95;65.24
46534;BME280;32260;52.008;4.752;2022-08-21T04:58:18;101706.22;;;17.98;65.46
46534;BME280;32260;52.008;4.752;2022-08-21T05:00:46;101704.47;;;17.97;65.57
46534;BME280;32260;52.008;4.752;2022-08-21T05:03:17;101714.00;;;18.04;65.63
46534;BME280;32260;52.008;4.752;2022-08-21T05:05:45;101708.84;;;18.00;65.68
46534;BME280;32260;52.008;4.752;2022-08-21T05:08:17;101707.72;;;18.05;66.00
46534;BME280;32260;52.008;4.752;2022-08-21T05:10:47;101709.47;;;18.06;65.71
46534;BME280;32260;52.008;4.752;2022-08-21T05:13:15;101710.41;;;18.05;66.20
46534;BME280;32260;52.008;4.752;2022-08-21T05:15:44;101711.06;;;18.12;66.18
46534;BME280;32260;52.008;4.752;2022-08-21T05:18:14;101713.69;;;18.14;66.45
46534;BME280;32260;52.008;4.752;2022-08-21T05:20:41;101712.81;;;18.13;66.66
46534;BME280;32260;52.008;4.752;2022-08-21T05:23:12;101708.09;;;18.20;65.88
46534;BME280;32260;52.008;4.752;2022-08-21T05:25:41;101717.81;;;18.22;66.37
46534;BME280;32260;52.008;4.752;2022-08-21T05:28:10;101717.81;;;18.22;66.89
46534;BME280;32260;52.008;4.752;2022-08-21T05:30:38;101715.06;;;18.24;67.03
46534;BME280;32260;52.008;4.752;2022-08-21T05:33:07;101715.75;;;18.29;65.37
46534;BME280;32260;52.008;4.752;2022-08-21T05:35:34;101711.28;;;18.30;66.33
46534;BME280;32260;52.008;4.752;2022-08-21T05:38:04;101717.59;;;18.29;65.84
46534;BME280;32260;52.008;4.752;2022-08-21T05:40:32;101716.41;;;18.36;66.35
46534;BME280;32260;52.008;4.752;2022-08-21T05:43:02;101717.88;;;18.45;66.41
46534;BME280;32260;52.008;4.752;2022-08-21T05:45:32;101714.88;;;18.52;66.32
46534;BME280;32260;52.008;4.752;2022-08-21T05:48:12;101720.88;;;18.59;66.21
46534;BME280;32260;52.008;4.752;2022-08-21T05:50:42;101724.50;;;18.58;66.56
46534;BME280;32260;52.008;4.752;2022-08-21T05:53:11;101717.25;;;18.60;66.98
46534;BME280;32260;52.008;4.752;2022-08-21T05:55:39;101720.75;;;18.62;67.01
46534;BME280;32260;52.008;4.752;2022-08-21T05:58:07;101716.25;;;18.63;66.43
46534;BME280;32260;52.008;4.752;2022-08-21T06:00:36;101725.75;;;18.71;66.99
46534;BME280;32260;52.008;4.752;2022-08-21T06:03:04;101715.00;;;18.71;66.92
46534;BME280;32260;52.008;4.752;2022-08-21T06:05:38;101716.34;;;18.83;67.00
46534;BME280;32260;52.008;4.752;2022-08-21T06:08:06;101713.66;;;18.83;66.85
46534;BME280;32260;52.008;4.752;2022-08-21T06:10:34;101711.56;;;18.90;66.16
46534;BME280;32260;52.008;4.752;2022-08-21T06:13:00;101711.50;;;18.93;66.48
46534;BME280;32260;52.008;4.752;2022-08-21T06:15:29;101710.41;;;18.97;67.19
46534;BME280;32260;52.008;4.752;2022-08-21T06:17:56;101702.09;;;19.03;66.92
46534;BME280;32260;52.008;4.752;2022-08-21T06:20:24;101693.53;;;19.16;66.79
46534;BME280;32260;52.008;4.752;2022-08-21T06:22:51;101702.16;;;19.24;66.98
46534;BME280;32260;52.008;4.752;2022-08-21T06:25:19;101702.94;;;19.26;67.14
46534;BME280;32260;52.008;4.752;2022-08-21T06:27:50;101706.38;;;19.30;66.79
46534;BME280;32260;52.008;4.752;2022-08-21T06:30:19;101709.66;;;19.36;66.69
46534;BME280;32260;52.008;4.752;2022-08-21T06:32:46;101711.28;;;19.40;66.81
46534;BME280;32260;52.008;4.752;2022-08-21T06:35:15;101699.59;;;19.42;67.22
46534;BME280;32260;52.008;4.752;2022-08-21T06:37:45;101706.03;;;19.58;66.80
46534;BME280;32260;52.008;4.752;2022-08-21T06:40:14;101709.66;;;19.57;67.05
46534;BME280;32260;52.008;4.752;2022-08-21T06:42:41;101701.41;;;19.62;66.80
46534;BME280;32260;52.008;4.752;2022-08-21T06:45:10;101700.25;;;19.67;66.78
46534;BME280;32260;52.008;4.752;2022-08-21T06:47:38;101695.09;;;19.83;66.72
46534;BME280;32260;52.008;4.752;2022-08-21T06:50:09;101697.56;;;19.88;66.38
46534;BME280;32260;52.008;4.752;2022-08-21T06:52:38;101697.31;;;19.94;66.61
46534;BME280;32260;52.008;4.752;2022-08-21T06:55:08;101702.41;;;20.00;66.21
46534;BME280;32260;52.008;4.752;2022-08-21T06:57:38;101696.41;;;19.94;66.38
46534;BME280;32260;52.008;4.752;2022-08-21T07:00:06;101704.16;;;20.01;66.56
46534;BME280;32260;52.008;4.752;2022-08-21T07:02:34;101706.47;;;20.09;66.44
46534;BME280;32260;52.008;4.752;2022-08-21T07:05:04;101705.47;;;20.12;66.78
46534;BME280;32260;52.008;4.752;2022-08-21T07:07:31;101699.06;;;20.33;66.05
46534;BME280;32260;52.008;4.752;2022-08-21T07:10:06;101698.63;;;20.43;66.29
46534;BME280;32260;52.008;4.752;2022-08-21T07:12:35;101701.69;;;20.54;65.85
46534;BME280;32260;52.008;4.752;2022-08-21T07:15:09;101699.78;;;20.56;65.62
46534;BME280;32260;52.008;4.752;2022-08-21T07:17:45;101699.34;;;20.65;65.36
46534;BME280;32260;52.008;4.752;2022-08-21T07:20:12;101705.75;;;20.63;65.10
46534;BME280;32260;52.008;4.752;2022-08-21T07:22:40;101716.03;;;20.74;65.09
46534;BME280;32260;52.008;4.752;2022-08-21T07:25:08;101718.25;;;20.83;64.78
46534;BME280;32260;52.008;4.752;2022-08-21T07:27:36;101711.28;;;20.79;65.08
46534;BME280;32260;52.008;4.752;2022-08-21T07:30:06;101715.03;;;20.94;65.04
46534;BME280;32260;52.008;4.752;2022-08-21T07:32:35;101720.13;;;21.00;64.88
46534;BME280;32260;52.008;4.752;2022-08-21T07:35:03;101724.19;;;21.09;64.46
46534;BME280;32260;52.008;4.752;2022-08-21T07:37:32;101720.38;;;21.13;64.52
46534;BME280;32260;52.008;4.752;2022-08-21T07:40:01;101712.06;;;21.17;64.25
46534;BME280;32260;52.008;4.752;2022-08-21T07:42:28;101702.44;;;21.29;63.99
46534;BME280;32260;52.008;4.752;2022-08-21T07:44:56;101696.13;;;21.30;63.81
46534;BME280;32260;52.008;4.752;2022-08-21T07:47:27;101698.66;;;21.51;63.67
46534;BME280;32260;52.008;4.752;2022-08-21T07:49:54;101701.19;;;21.54;63.69
46534;BME280;32260;52.008;4.752;2022-08-21T07:52:23;101698.56;;;21.70;63.34
46534;BME280;32260;52.008;4.752;2022-08-21T07:54:52;101701.66;;;21.80;63.27
46534;BME280;32260;52.008;4.752;2022-08-21T07:57:22;101704.06;;;21.69;63.13
46534;BME280;32260;52.008;4.752;2022-08-21T07:59:49;101705.50;;;21.92;62.55
46534;BME280;32260;52.008;4.752;2022-08-21T08:02:25;101697.50;;;21.90;62.35
46534;BME280;32260;52.008;4.752;2022-08-21T08:04:51;101705.53;;;22.08;62.01
46534;BME280;32260;52.008;4.752;2022-08-21T08:07:20;101710.16;;;22.06;61.94
46534;BME280;32260;52.008;4.752;2022-08-21T08:09:49;101716.88;;;22.14;61.73
46534;BME280;32260;52.008;4.752;2022-08-21T08:12:17;101704.63;;;22.25;61.66
46534;BME280;32260;52.008;4.752;2022-08-21T08:14:45;101707.25;;;22.42;61.48
46534;BME280;32260;52.008;4.752;2022-08-21T08:17:13;101713.38;;;22.46;61.16
46534;BME280;32260;52.008;4.752;2022-08-21T08:19:44;101714.16;;;22.48;60.83
46534;BME280;32260;52.008;4.752;2022-08-21T08:22:17;101701.25;;;22.69;60.71
46534;BME280;32260;52.008;4.752;2022-08-21T08:24:46;101704.97;;;22.67;60.02
46534;BME280;32260;52.008;4.752;2022-08-21T08:27:17;101704.72;;;22.87;59.76
46534;BME280;32260;52.008;4.752;2022-08-21T08:29:44;101700.09;;;22.89;59.05
46534;BME280;32260;52.008;4.752;2022-08-21T08:32:13;101704.94;;;22.99;58.87
46534;BME280;32260;52.008;4.752;2022-08-21T08:34:39;101699.19;;;23.05;58.67
46534;BME280;32260;52.008;4.752;2022-08-21T08:37:10;101690.78;;;23.25;58.57
46534;BME280;32260;52.008;4.752;2022-08-21T08:39:37;101686.94;;;23.30;58.14
46534;BME280;32260;52.008;4.752;2022-08-21T08:42:13;101682.63;;;23.41;57.83
46534;BME280;32260;52.008;4.752;2022-08-21T08:44:46;101683.53;;;23.56;57.08
46534;BME280;32260;52.008;4.752;2022-08-21T08:47:18;101680.50;;;23.61;56.52
46534;BME280;32260;52.008;4.752;2022-08-21T08:49:58;101680.81;;;23.71;56.15
46534;BME280;32260;52.008;4.752;2022-08-21T08:55:19;101682.41;;;24.04;55.99
46534;BME280;32260;52.008;4.752;2022-08-21T08:57:51;101685.19;;;24.02;55.34
46534;BME280;32260;52.008;4.752;2022-08-21T09:00:23;101684.72;;;24.10;55.49
46534;BME280;32260;52.008;4.752;2022-08-21T09:02:56;101674.72;;;24.25;55.20
46534;BME280;32260;52.008;4.752;2022-08-21T09:05:28;101680.22;;;24.23;54.94
46534;BME280;32260;52.008;4.752;2022-08-21T09:11:10;101682.41;;;24.46;53.65
46534;BME280;32260;52.008;4.752;2022-08-21T09:14:00;101680.06;;;24.54;53.43
46534;BME280;32260;52.008;4.752;2022-08-21T09:16:47;101681.03;;;24.67;52.02
46534;BME280;32260;52.008;4.752;2022-08-21T09:25:15;101670.97;;;25.10;50.91
46534;BME280;32260;52.008;4.752;2022-08-21T09:27:47;101668.56;;;25.05;49.76
46534;BME280;32260;52.008;4.752;2022-08-21T09:30:19;101680.16;;;25.07;50.07
46534;BME280;32260;52.008;4.752;2022-08-21T09:32:53;101665.56;;;25.23;49.58
46534;BME280;32260;52.008;4.752;2022-08-21T09:35:23;101668.19;;;25.37;49.60
46534;BME280;32260;52.008;4.752;2022-08-21T09:40:47;101676.25;;;25.39;48.81
46534;BME280;32260;52.008;4.752;2022-08-21T09:43:24;101671.19;;;25.19;48.57
46534;BME280;32260;52.008;4.752;2022-08-21T09:48:53;101677.56;;;25.59;48.78
46534;BME280;32260;52.008;4.752;2022-08-21T09:51:25;101663.34;;;25.68;47.83
46534;BME280;32260;52.008;4.752;2022-08-21T10:00:22;101668.22;;;26.14;45.07
46534;BME280;32260;52.008;4.752;2022-08-21T10:02:50;101665.78;;;26.23;45.86
46534;BME280;32260;52.008;4.752;2022-08-21T10:07:56;101661.03;;;26.51;42.92
46534;BME280;32260;52.008;4.752;2022-08-21T10:10:28;101665.38;;;26.77;44.14
46534;BME280;32260;52.008;4.752;2022-08-21T10:20:01;101663.81;;;27.22;43.59
46534;BME280;32260;52.008;4.752;2022-08-21T10:32:40;101668.28;;;26.26;44.53
46534;BME280;32260;52.008;4.752;2022-08-21T10:35:29;101665.50;;;26.14;44.98
46534;BME280;32260;52.008;4.752;2022-08-21T10:43:54;101654.91;;;26.23;45.65
46534;BME280;32260;52.008;4.752;2022-08-21T10:52:18;101656.16;;;26.06;46.17
46534;BME280;32260;52.008;4.752;2022-08-21T10:55:12;101647.34;;;26.15;44.89
46534;BME280;32260;52.008;4.752;2022-08-21T10:57:46;101654.97;;;26.10;44.93
46534;BME280;32260;52.008;4.752;2022-08-21T11:00:17;101659.31;;;25.99;45.24
46534;BME280;32260;52.008;4.752;2022-08-21T11:02:55;101658.00;;;25.92;45.91
46534;BME280;32260;52.008;4.752;2022-08-21T11:05:38;101664.19;;;25.81;45.66
46534;BME280;32260;52.008;4.752;2022-08-21T11:08:12;101661.47;;;25.81;46.04
46534;BME280;32260;52.008;4.752;2022-08-21T11:10:50;101661.03;;;25.88;45.19
46534;BME280;32260;52.008;4.752;2022-08-21T11:13:41;101655.28;;;25.79;45.51
46534;BME280;32260;52.008;4.752;2022-08-21T11:16:45;101652.22;;;25.97;45.55
46534;BME280;32260;52.008;4.752;2022-08-21T11:19:19;101660.34;;;26.23;45.27
46534;BME280;32260;52.008;4.752;2022-08-21T11:22:15;101657.47;;;26.37;43.79
46534;BME280;32260;52.008;4.752;2022-08-21T11:30:12;101652.34;;;26.08;42.96
46534;BME280;32260;52.008;4.752;2022-08-21T11:35:53;101660.91;;;26.02;41.00
46534;BME280;32260;52.008;4.752;2022-08-21T11:52:31;101672.75;;;26.01;42.46
46534;BME280;32260;52.008;4.752;2022-08-21T11:58:01;101673.97;;;26.47;42.04
46534;BME280;32260;52.008;4.752;2022-08-21T12:00:44;101668.63;;;26.45;42.11
46534;BME280;32260;52.008;4.752;2022-08-21T12:03:36;101673.16;;;26.58;42.04
46534;BME280;32260;52.008;4.752;2022-08-21T12:06:16;101675.69;;;26.48;41.57
46534;BME280;32260;52.008;4.752;2022-08-21T12:09:05;101671.13;;;26.48;41.67
46534;BME280;32260;52.008;4.752;2022-08-21T12:11:32;101669.97;;;26.64;40.91
46534;BME280;32260;52.008;4.752;2022-08-21T12:16:50;101670.22;;;27.09;40.46
46534;BME280;32260;52.008;4.752;2022-08-21T12:29:59;101670.81;;;26.77;38.50
46534;BME280;32260;52.008;4.752;2022-08-21T12:32:42;101679.13;;;26.87;39.41
46534;BME280;32260;52.008;4.752;2022-08-21T12:38:14;101682.88;;;26.73;38.88
46534;BME280;32260;52.008;4.752;2022-08-21T12:41:06;101677.91;;;26.67;37.97
46534;BME280;32260;52.008;4.752;2022-08-21T12:43:40;101683.28;;;26.56;38.62
46534;BME280;32260;52.008;4.752;2022-08-21T12:46:13;101679.22;;;26.37;38.89
46534;BME280;32260;52.008;4.752;2022-08-21T12:48:47;101678.75;;;26.43;38.11
46534;BME280;32260;52.008;4.752;2022-08-21T12:51:50;101690.41;;;26.32;37.50
46534;BME280;32260;52.008;4.752;2022-08-21T12:54:40;101675.34;;;26.53;37.64
46534;BME280;32260;52.008;4.752;2022-08-21T12:57:08;101687.50;;;26.60;38.10
46534;BME280;32260;52.008;4.752;2022-08-21T12:59:39;101687.97;;;26.54;37.28
46534;BME280;32260;52.008;4.752;2022-08-21T13:02:16;101696.81;;;26.44;36.94
46534;BME280;32260;52.008;4.752;2022-08-21T13:04:45;101682.25;;;26.70;37.24
46534;BME280;32260;52.008;4.752;2022-08-21T13:07:14;101674.94;;;26.83;36.43
46534;BME280;32260;52.008;4.752;2022-08-21T13:09:52;101679.72;;;27.15;35.37
46534;BME280;32260;52.008;4.752;2022-08-21T13:12:21;101680.63;;;27.16;36.34
46534;BME280;32260;52.008;4.752;2022-08-21T13:14:50;101674.13;;;27.05;37.52
46534;BME280;32260;52.008;4.752;2022-08-21T13:17:19;101682.19;;;27.07;36.85
46534;BME280;32260;52.008;4.752;2022-08-21T13:20:05;101674.78;;;27.44;35.49
46534;BME280;32260;52.008;4.752;2022-08-21T13:22:32;101683.44;;;27.50;34.79
46534;BME280;32260;52.008;4.752;2022-08-21T13:25:08;101677.91;;;27.85;35.06
46534;BME280;32260;52.008;4.752;2022-08-21T13:27:35;101681.22;;;27.77;35.42
46534;BME280;32260;52.008;4.752;2022-08-21T13:32:55;101686.06;;;27.16;35.46
46534;BME280;32260;52.008;4.752;2022-08-21T13:35:31;101676.66;;;27.20;35.92
46534;BME280;32260;52.008;4.752;2022-08-21T13:38:01;101676.75;;;27.42;36.36
46534;BME280;32260;52.008;4.752;2022-08-21T13:40:32;101683.44;;;27.50;36.05
46534;BME280;32260;52.008;4.752;2022-08-21T13:43:14;101680.88;;;27.71;35.85
46534;BME280;32260;52.008;4.752;2022-08-21T13:45:46;101677.50;;;27.44;35.73
46534;BME280;32260;52.008;4.752;2022-08-21T13:48:13;101676.91;;;27.64;36.40
46534;BME280;32260;52.008;4.752;2022-08-21T13:50:41;101674.94;;;27.66;36.17
46534;BME280;32260;52.008;4.752;2022-08-21T13:53:36;101678.28;;;27.92;35.69
46534;BME280;32260;52.008;4.752;2022-08-21T13:56:06;101680.25;;;27.90;36.22
46534;BME280;32260;52.008;4.752;2022-08-21T13:58:48;101674.09;;;27.76;35.83
46534;BME280;32260;52.008;4.752;2022-08-21T14:01:36;101677.28;;;27.70;36.49
46534;BME280;32260;52.008;4.752;2022-08-21T14:04:20;101679.47;;;27.54;36.90
46534;BME280;32260;52.008;4.752;2022-08-21T14:06:52;101678.84;;;27.50;37.01
46534;BME280;32260;52.008;4.752;2022-08-21T14:09:28;101690.28;;;27.31;37.32
46534;BME280;32260;52.008;4.752;2022-08-21T14:11:57;101690.59;;;27.15;37.66
46534;BME280;32260;52.008;4.752;2022-08-21T14:14:28;101685.53;;;27.10;37.54
46534;BME280;32260;52.008;4.752;2022-08-21T14:17:02;101693.31;;;26.79;37.69
46534;BME280;32260;52.008;4.752;2022-08-21T14:19:42;101691.25;;;26.83;37.41
46534;BME280;32260;52.008;4.752;2022-08-21T14:25:40;101698.09;;;27.00;37.11
46534;BME280;32260;52.008;4.752;2022-08-21T14:28:30;101694.19;;;27.04;37.65
46534;BME280;32260;52.008;4.752;2022-08-21T14:31:12;101692.94;;;26.60;37.11
46534;BME280;32260;52.008;4.752;2022-08-21T14:33:44;101684.97;;;26.70;37.84
46534;BME280;32260;52.008;4.752;2022-08-21T14:36:15;101696.94;;;26.67;37.61
46534;BME280;32260;52.008;4.752;2022-08-21T14:38:46;101689.97;;;26.63;37.82
46534;BME280;32260;52.008;4.752;2022-08-21T14:41:20;101686.91;;;26.80;37.44
46534;BME280;32260;52.008;4.752;2022-08-21T14:43:49;101680.38;;;26.83;37.98
46534;BME280;32260;52.008;4.752;2022-08-21T14:46:23;101693.91;;;26.59;37.08
46534;BME280;32260;52.008;4.752;2022-08-21T14:48:50;101689.50;;;26.82;37.52
46534;BME280;32260;52.008;4.752;2022-08-21T14:51:16;101698.03;;;26.64;36.54
46534;BME280;32260;52.008;4.752;2022-08-21T14:53:43;101696.34;;;26.51;36.45
46534;BME280;32260;52.008;4.752;2022-08-21T14:56:10;101691.97;;;26.61;36.79